Time;durP1;ratioP1;P1;durP2;ratioP2;P2;SDS_P1;SDS_P2;PMS_P1;PMS_P2;Temp;Humidity;BMP_temperature;BMP_pressure;BME280_temperature;BME280_humidity;BME280_pressure;Samples;Min_cycle;Max_cycle;Signal;HPM_P1;HPM_P2
2023/10/18 00:01:39;;;;;;;16.00;6.83;;;1.40;99.90;;;;;;5010106;28;20199;-64
2023/10/18 00:04:06;;;;;;;16.77;6.80;;;1.40;99.90;;;;;;5009872;28;20271;-64
2023/10/18 00:06:32;;;;;;;16.23;6.60;;;1.40;99.90;;;;;;5009649;28;20696;-64
2023/10/18 00:08:58;;;;;;;10.43;5.83;;;1.40;99.90;;;;;;5009680;28;20720;-65
2023/10/18 00:11:25;;;;;;;13.40;6.47;;;1.40;99.90;;;;;;5012223;28;20667;-65
2023/10/18 00:13:53;;;;;;;12.67;6.40;;;1.40;99.90;;;;;;5013705;28;20189;-64
2023/10/18 00:16:20;;;;;;;12.80;6.60;;;1.40;99.90;;;;;;5013305;28;20185;-64
2023/10/18 00:18:46;;;;;;;16.93;6.57;;;1.40;99.90;;;;;;5013353;28;20200;-64
2023/10/18 00:21:12;;;;;;;12.80;6.13;;;1.40;99.90;;;;;;5017805;28;20223;-64
2023/10/18 00:23:39;;;;;;;11.30;6.33;;;1.40;99.90;;;;;;5017226;28;20193;-63
2023/10/18 00:26:06;;;;;;;13.17;6.30;;;1.40;99.90;;;;;;5013139;28;20192;-64
2023/10/18 00:28:34;;;;;;;14.70;6.70;;;1.40;99.90;;;;;;5013254;28;20712;-65
2023/10/18 00:31:12;;;;;;;12.50;6.57;;;1.30;99.90;;;;;;5013267;28;20180;-64
2023/10/18 00:33:39;;;;;;;9.50;5.73;;;1.40;99.90;;;;;;5021252;28;20175;-64
2023/10/18 00:36:05;;;;;;;11.57;6.03;;;1.40;99.90;;;;;;5013029;28;20315;-64
2023/10/18 00:38:30;;;;;;;11.80;6.13;;;1.40;99.90;;;;;;5013133;28;20291;-64
2023/10/18 00:40:56;;;;;;;13.27;6.27;;;1.40;99.90;;;;;;5013029;28;20200;-65
2023/10/18 00:43:28;;;;;;;14.23;7.17;;;1.40;99.90;;;;;;5013169;28;20391;-65
2023/10/18 00:45:55;;;;;;;14.83;6.77;;;1.30;99.90;;;;;;5012740;28;20188;-64
2023/10/18 00:48:24;;;;;;;17.87;6.27;;;1.30;99.90;;;;;;5012852;28;20705;-65
2023/10/18 00:50:54;;;;;;;16.37;6.67;;;1.30;99.90;;;;;;5013033;28;20176;-65
2023/10/18 00:53:23;;;;;;;15.47;6.70;;;1.30;99.90;;;;;;5012839;28;20214;-64
2023/10/18 00:55:59;;;;;;;12.63;6.33;;;1.20;99.90;;;;;;5012532;28;20263;-64
2023/10/18 00:58:27;;;;;;;13.50;6.57;;;1.10;99.90;;;;;;5012762;28;20212;-64
2023/10/18 01:00:53;;;;;;;15.87;6.63;;;1.20;99.90;;;;;;5012823;28;20184;-64
2023/10/18 01:03:36;;;;;;;16.03;5.97;;;1.20;99.90;;;;;;5012650;28;20181;-63
2023/10/18 01:06:04;;;;;;;13.10;5.97;;;1.10;99.90;;;;;;5012379;28;20611;-63
2023/10/18 01:08:30;;;;;;;20.17;6.33;;;1.10;99.90;;;;;;5012458;28;20359;-64
2023/10/18 01:11:12;;;;;;;11.93;6.00;;;1.10;99.90;;;;;;5012488;28;20684;-64
2023/10/18 01:13:42;;;;;;;12.50;6.40;;;1.10;99.90;;;;;;5012651;28;20192;-64
2023/10/18 01:16:14;;;;;;;14.47;6.37;;;1.00;99.90;;;;;;5012313;28;20184;-64
2023/10/18 01:18:44;;;;;;;13.77;6.70;;;1.10;99.90;;;;;;5012414;28;20288;-64
2023/10/18 01:21:14;;;;;;;14.17;6.13;;;1.00;99.90;;;;;;5012374;28;20180;-64
2023/10/18 01:23:49;;;;;;;13.83;6.77;;;1.00;99.90;;;;;;5011882;28;20185;-64
2023/10/18 01:26:15;;;;;;;10.93;5.83;;;1.00;99.90;;;;;;5010797;28;20237;-63
2023/10/18 01:28:41;;;;;;;12.67;5.90;;;1.00;99.90;;;;;;5012159;28;20579;-63
2023/10/18 01:31:07;;;;;;;12.63;6.50;;;1.00;99.90;;;;;;5004351;28;20181;-63
2023/10/18 01:33:33;;;;;;;15.50;6.93;;;1.00;99.90;;;;;;5012099;28;20238;-63
2023/10/18 01:36:00;;;;;;;12.43;6.43;;;0.90;99.90;;;;;;5011674;28;20193;-64
2023/10/18 01:38:30;;;;;;;11.67;6.13;;;0.90;99.90;;;;;;5012041;28;20657;-64
2023/10/18 01:41:00;;;;;;;14.50;6.60;;;0.90;99.90;;;;;;5012062;28;20255;-64
2023/10/18 01:43:28;;;;;;;12.87;6.60;;;0.90;99.90;;;;;;5012093;28;20247;-64
2023/10/18 01:45:54;;;;;;;11.63;6.60;;;0.90;99.90;;;;;;5011601;28;20330;-63
2023/10/18 01:48:20;;;;;;;15.90;6.53;;;0.90;99.90;;;;;;5011649;28;20689;-64
2023/10/18 01:50:46;;;;;;;15.87;7.47;;;0.80;99.90;;;;;;5011828;28;20424;-64
2023/10/18 01:53:21;;;;;;;13.73;6.43;;;0.80;99.90;;;;;;5011811;28;20172;-64
2023/10/18 01:55:53;;;;;;;16.77;6.73;;;0.80;99.90;;;;;;5011488;28;20576;-63
2023/10/18 01:58:23;;;;;;;13.37;6.27;;;0.80;99.90;;;;;;5011737;28;20211;-64
2023/10/18 02:00:49;;;;;;;15.53;6.73;;;0.80;99.90;;;;;;5011583;28;20264;-64
2023/10/18 02:03:15;;;;;;;12.13;6.30;;;0.80;99.90;;;;;;5011639;28;20177;-63
2023/10/18 02:05:43;;;;;;;12.40;6.10;;;0.80;99.90;;;;;;5011590;28;20251;-64
2023/10/18 02:08:11;;;;;;;17.57;6.77;;;0.80;99.90;;;;;;5011439;28;20216;-63
2023/10/18 02:10:40;;;;;;;11.93;6.10;;;0.80;99.90;;;;;;5011627;28;20204;-64
2023/10/18 02:13:13;;;;;;;14.30;6.20;;;0.80;99.90;;;;;;5010266;28;20596;-64
2023/10/18 02:15:40;;;;;;;16.20;6.63;;;0.80;99.90;;;;;;5011287;28;20176;-63
2023/10/18 02:18:07;;;;;;;12.33;6.50;;;0.80;99.90;;;;;;5011276;28;20200;-64
2023/10/18 02:20:50;;;;;;;13.17;6.00;;;0.80;99.90;;;;;;5011567;28;20327;-63
2023/10/18 02:23:16;;;;;;;12.20;5.50;;;0.80;99.90;;;;;;5004353;28;20198;-64
2023/10/18 02:28:22;;;;;;;13.90;5.87;;;0.80;99.90;;;;;;5002964;28;20208;-63
2023/10/18 02:30:58;;;;;;;13.17;6.13;;;0.80;99.90;;;;;;5011268;28;20264;-63
2023/10/18 02:33:26;;;;;;;11.87;5.60;;;0.80;99.90;;;;;;5011074;28;20180;-63
2023/10/18 02:35:52;;;;;;;12.83;5.70;;;0.70;99.90;;;;;;5010297;28;20652;-63
2023/10/18 02:38:20;;;;;;;12.90;6.10;;;0.70;99.90;;;;;;5011171;28;20250;-64
2023/10/18 02:40:45;;;;;;;12.37;6.47;;;0.70;99.90;;;;;;5011046;28;20184;-64
2023/10/18 02:43:11;;;;;;;14.70;6.37;;;0.70;99.90;;;;;;5011223;28;20716;-64
2023/10/18 02:45:42;;;;;;;13.97;5.93;;;0.60;99.90;;;;;;5011289;28;20188;-64
2023/10/18 02:48:13;;;;;;;10.93;5.77;;;0.60;99.90;;;;;;5010921;28;20727;-64
2023/10/18 02:50:40;;;;;;;14.60;6.20;;;0.50;99.90;;;;;;5011231;28;20311;-64
2023/10/18 02:53:06;;;;;;;15.57;6.83;;;0.50;99.90;;;;;;5010861;28;20235;-63
2023/10/18 02:55:34;;;;;;;11.60;5.53;;;0.50;99.90;;;;;;5011238;28;20176;-63
2023/10/18 02:57:59;;;;;;;13.73;6.00;;;0.40;99.90;;;;;;5011111;28;20215;-64
2023/10/18 03:00:26;;;;;;;14.27;6.17;;;0.50;99.90;;;;;;5011428;28;20180;-64
2023/10/18 03:02:54;;;;;;;11.83;6.10;;;0.50;99.90;;;;;;5010920;28;20187;-64
2023/10/18 03:05:20;;;;;;;15.27;6.03;;;0.50;99.90;;;;;;5011167;28;20420;-64
2023/10/18 03:07:46;;;;;;;18.17;6.07;;;0.50;99.90;;;;;;5010871;28;20226;-63
2023/10/18 03:10:12;;;;;;;10.83;5.37;;;0.40;99.90;;;;;;5011253;28;20180;-64
2023/10/18 03:12:38;;;;;;;12.17;6.17;;;0.40;99.90;;;;;;5010542;28;20198;-64
2023/10/18 03:15:21;;;;;;;10.77;5.57;;;0.40;99.90;;;;;;5010309;28;20696;-64
2023/10/18 03:17:49;;;;;;;13.63;5.73;;;0.40;99.90;;;;;;5010039;28;20236;-63
2023/10/18 03:20:25;;;;;;;10.43;5.50;;;0.40;99.90;;;;;;5010689;28;20196;-64
2023/10/18 03:22:52;;;;;;;10.70;5.47;;;0.40;99.90;;;;;;5010456;28;20193;-63
2023/10/18 03:25:26;;;;;;;9.27;4.83;;;0.30;99.90;;;;;;5018513;28;20423;-64
2023/10/18 03:27:57;;;;;;;13.77;5.90;;;0.40;99.90;;;;;;5009938;28;20215;-64
2023/10/18 03:30:39;;;;;;;10.17;5.00;;;0.40;99.90;;;;;;5010288;28;20424;-64
2023/10/18 03:33:07;;;;;;;10.90;5.80;;;0.30;99.90;;;;;;5010170;28;20554;-64
2023/10/18 03:35:37;;;;;;;9.67;5.03;;;0.30;99.90;;;;;;5010503;28;20215;-64
2023/10/18 03:38:06;;;;;;;7.97;5.07;;;0.30;99.90;;;;;;5009973;28;20216;-63
2023/10/18 03:40:36;;;;;;;9.60;4.93;;;0.30;99.90;;;;;;5010425;28;20271;-64
2023/10/18 03:43:09;;;;;;;8.93;4.70;;;0.30;99.90;;;;;;5010108;28;20216;-64
2023/10/18 03:48:26;;;;;;;18.20;7.93;;;0.30;99.90;;;;;;5014085;28;20267;-65
2023/10/18 03:51:00;;;;;;;19.47;7.80;;;0.30;99.90;;;;;;4996701;28;20959;-64
2023/10/18 03:53:27;;;;;;;11.33;5.87;;;0.30;99.90;;;;;;5014189;28;20173;-63
2023/10/18 03:55:55;;;;;;;11.30;5.30;;;0.30;99.90;;;;;;5013584;28;20982;-64
2023/10/18 03:58:25;;;;;;;16.10;5.70;;;0.30;99.90;;;;;;5013994;28;20471;-64
2023/10/18 04:00:56;;;;;;;11.43;5.13;;;0.30;99.90;;;;;;5013897;28;20431;-62
2023/10/18 04:03:27;;;;;;;11.17;5.30;;;0.30;99.90;;;;;;5014064;28;20195;-65
2023/10/18 04:05:54;;;;;;;10.97;5.37;;;0.30;99.90;;;;;;5013424;28;20219;-64
2023/10/18 04:08:21;;;;;;;10.90;4.87;;;0.30;99.90;;;;;;5013487;28;20609;-63
2023/10/18 04:10:59;;;;;;;9.93;5.57;;;0.30;99.90;;;;;;5013657;28;20180;-64
2023/10/18 04:13:27;;;;;;;8.70;5.20;;;0.30;99.90;;;;;;5013852;28;20199;-64
2023/10/18 04:16:11;;;;;;;12.63;5.93;;;0.40;99.90;;;;;;5013231;28;20423;-63
2023/10/18 04:18:42;;;;;;;14.50;6.67;;;0.40;99.90;;;;;;5013684;28;20223;-64
2023/10/18 04:21:15;;;;;;;13.77;6.50;;;0.40;99.90;;;;;;5013479;28;20184;-64
2023/10/18 04:23:49;;;;;;;12.73;6.10;;;0.40;99.90;;;;;;5013622;28;20180;-64
2023/10/18 04:26:18;;;;;;;13.97;6.37;;;0.40;99.90;;;;;;5006063;28;20192;-64
2023/10/18 04:28:45;;;;;;;11.90;6.10;;;0.40;99.90;;;;;;5013187;28;20625;-64
2023/10/18 04:31:14;;;;;;;11.97;6.43;;;0.50;99.90;;;;;;5013595;28;20247;-64
2023/10/18 04:33:41;;;;;;;9.40;5.73;;;0.50;99.90;;;;;;5013329;28;20172;-64
2023/10/18 04:36:14;;;;;;;10.97;5.77;;;0.50;99.90;;;;;;5012959;28;20320;-64
2023/10/18 04:38:47;;;;;;;12.20;6.10;;;0.50;99.90;;;;;;5013124;28;20430;-64
2023/10/18 04:44:05;;;;;;;14.97;6.93;;;0.40;99.90;;;;;;5012834;28;20245;-64
2023/10/18 04:46:31;;;;;;;13.47;6.43;;;0.40;99.90;;;;;;5012715;28;20657;-64
2023/10/18 04:51:27;;;;;;;19.83;7.00;;;0.40;99.90;;;;;;5018472;28;20520;-64
2023/10/18 04:54:00;;;;;;;11.80;6.53;;;0.40;99.90;;;;;;5014948;28;20200;-64
2023/10/18 04:56:32;;;;;;;15.80;6.33;;;0.40;99.90;;;;;;5012644;28;20242;-64
2023/10/18 04:59:06;;;;;;;12.20;6.10;;;0.40;99.90;;;;;;5012132;28;20198;-63
2023/10/18 05:01:56;;;;;;;16.90;7.47;;;0.40;99.90;;;;;;5012834;28;20466;-64
2023/10/18 05:04:34;;;;;;;13.87;7.00;;;0.50;99.90;;;;;;5006203;28;20451;-64
2023/10/18 05:07:01;;;;;;;17.27;7.70;;;0.50;99.90;;;;;;5011948;28;20303;-64
2023/10/18 05:09:34;;;;;;;17.20;7.73;;;0.40;99.90;;;;;;5012738;28;20992;-64
2023/10/18 05:14:42;;;;;;;18.00;7.73;;;0.40;99.90;;;;;;5012405;28;20242;-64
2023/10/18 05:17:17;;;;;;;21.33;9.63;;;0.40;99.90;;;;;;5011614;28;20944;-64
2023/10/18 05:19:43;;;;;;;20.50;9.97;;;0.40;99.90;;;;;;5012658;28;20510;-64
2023/10/18 05:22:23;;;;;;;19.67;9.33;;;0.40;99.90;;;;;;5012460;28;20267;-63
2023/10/18 05:25:11;;;;;;;17.10;8.67;;;0.50;99.90;;;;;;5012199;28;20188;-64
2023/10/18 05:27:38;;;;;;;18.53;8.37;;;0.50;99.90;;;;;;5012297;28;20555;-64
2023/10/18 05:30:15;;;;;;;19.27;8.80;;;0.50;99.90;;;;;;5020575;28;20196;-63
2023/10/18 05:33:05;;;;;;;16.10;8.07;;;0.50;99.90;;;;;;5012258;28;20199;-63
2023/10/18 05:35:34;;;;;;;15.07;7.40;;;0.50;99.90;;;;;;5007158;28;20518;-64
2023/10/18 05:37:59;;;;;;;14.00;7.60;;;0.50;99.90;;;;;;5011814;28;20266;-64
2023/10/18 05:43:06;;;;;;;17.43;7.67;;;0.50;99.90;;;;;;5012062;28;20195;-63
2023/10/18 05:45:32;;;;;;;17.17;7.33;;;0.50;99.90;;;;;;5012072;28;20176;-64
2023/10/18 05:48:12;;;;;;;12.77;6.53;;;0.50;99.90;;;;;;5011478;28;20699;-65
2023/10/18 05:50:38;;;;;;;13.53;6.50;;;0.50;99.90;;;;;;5010896;28;20839;-63
2023/10/18 05:53:10;;;;;;;15.50;6.67;;;0.50;99.90;;;;;;5011854;28;20292;-63
2023/10/18 05:55:38;;;;;;;12.63;6.37;;;0.50;99.90;;;;;;5011959;28;20244;-63
2023/10/18 05:58:05;;;;;;;17.37;6.37;;;0.40;99.90;;;;;;5011372;28;20440;-64
2023/10/18 06:13:27;;;;;;;16.97;9.10;;;0.50;99.90;;;;;;5940640;23;20243;-64
2023/10/18 06:15:58;;;;;;;12.80;7.30;;;0.50;99.90;;;;;;5003464;28;20216;-64
2023/10/18 06:18:30;;;;;;;19.67;7.87;;;0.50;99.90;;;;;;5010322;28;20270;-66
2023/10/18 06:20:59;;;;;;;16.97;7.87;;;0.60;99.90;;;;;;5002904;28;20180;-66
2023/10/18 06:23:37;;;;;;;15.40;7.47;;;0.60;99.90;;;;;;5009920;28;20228;-65
2023/10/18 06:28:53;;;;;;;16.73;7.60;;;0.80;99.90;;;;;;5009384;28;20227;-67
2023/10/18 06:31:20;;;;;;;16.63;7.83;;;0.80;99.90;;;;;;5010197;28;20180;-67
2023/10/18 06:33:51;;;;;;;13.23;7.40;;;0.90;99.90;;;;;;5011352;28;20196;-66
2023/10/18 06:36:18;;;;;;;18.80;7.17;;;0.90;99.90;;;;;;5009163;28;20172;-66
2023/10/18 06:38:44;;;;;;;26.37;8.40;;;1.00;99.90;;;;;;5010122;28;20181;-65
2023/10/18 06:41:21;;;;;;;16.87;7.30;;;1.10;99.90;;;;;;5009770;28;20188;-66
2023/10/18 06:43:49;;;;;;;17.67;7.17;;;1.20;99.90;;;;;;5009640;28;20287;-66
2023/10/18 06:46:30;;;;;;;22.40;8.13;;;1.30;99.90;;;;;;5008696;28;20168;-66
2023/10/18 06:48:59;;;;;;;14.80;7.47;;;1.30;99.90;;;;;;4997705;28;20204;-66
2023/10/18 06:51:31;;;;;;;18.40;7.83;;;1.40;99.90;;;;;;5012162;28;20860;-65
2023/10/18 06:54:03;;;;;;;23.10;10.67;;;1.50;99.90;;;;;;5002089;28;20447;-66
2023/10/18 06:56:32;;;;;;;16.57;7.67;;;1.60;99.90;;;;;;5003813;28;20680;-66
2023/10/18 06:59:04;;;;;;;22.70;7.77;;;1.70;99.90;;;;;;5006146;28;20173;-66
2023/10/18 07:01:31;;;;;;;15.73;7.97;;;1.70;99.90;;;;;;5008570;28;20310;-65
2023/10/18 07:03:57;;;;;;;24.23;10.87;;;1.80;99.90;;;;;;5009523;28;20204;-66
2023/10/18 07:06:29;;;;;;;21.30;8.57;;;1.90;99.90;;;;;;5008807;28;20190;-66
2023/10/18 07:08:55;;;;;;;16.60;8.73;;;2.00;99.90;;;;;;5009606;28;20312;-65
2023/10/18 07:11:22;;;;;;;16.93;9.37;;;2.10;99.90;;;;;;5009685;28;20311;-66
2023/10/18 07:13:50;;;;;;;22.67;10.20;;;2.20;99.90;;;;;;5008749;28;20212;-66
2023/10/18 07:21:43;;;;;;;23.30;11.70;;;2.50;99.90;;;;;;5002639;28;20224;-63
2023/10/18 07:24:09;;;;;;;24.63;13.10;;;2.60;99.90;;;;;;5003991;28;20196;-65
2023/10/18 07:26:36;;;;;;;22.97;11.43;;;2.70;99.90;;;;;;5013897;28;20187;-66
2023/10/18 07:29:06;;;;;;;19.47;11.20;;;2.80;99.90;;;;;;5009218;28;20648;-66
2023/10/18 07:31:39;;;;;;;20.80;11.83;;;2.80;99.90;;;;;;5017622;28;20187;-65
2023/10/18 07:34:07;;;;;;;31.30;13.90;;;2.90;99.90;;;;;;5009253;28;20212;-64
2023/10/18 07:36:37;;;;;;;32.40;14.70;;;3.10;99.90;;;;;;5009190;28;20191;-65
2023/10/18 07:39:04;;;;;;;20.43;12.40;;;3.20;99.90;;;;;;5009344;28;20183;-65
2023/10/18 07:41:36;;;;;;;21.50;10.63;;;3.40;99.90;;;;;;5009705;28;20180;-65
2023/10/18 07:44:05;;;;;;;18.83;10.20;;;3.60;99.90;;;;;;5009108;28;20338;-65
2023/10/18 07:46:34;;;;;;;19.50;9.63;;;3.80;99.90;;;;;;5009196;28;20271;-65
2023/10/18 07:49:13;;;;;;;18.70;9.57;;;4.10;99.90;;;;;;5009558;28;20173;-65
2023/10/18 07:51:43;;;;;;;18.53;8.63;;;4.30;99.90;;;;;;5009434;28;20188;-66
2023/10/18 07:54:14;;;;;;;23.80;9.23;;;4.50;99.90;;;;;;5008910;28;20200;-66
2023/10/18 07:56:48;;;;;;;20.17;9.53;;;4.70;99.90;;;;;;5009101;28;20672;-66
2023/10/18 07:59:30;;;;;;;21.30;8.23;;;4.90;99.90;;;;;;5001868;28;20662;-68
2023/10/18 08:04:42;;;;;;;14.93;8.53;;;5.40;99.90;;;;;;5008704;28;20235;-66
2023/10/18 08:07:15;;;;;;;15.33;7.93;;;5.60;99.90;;;;;;5004500;28;20220;-66
2023/10/18 08:09:41;;;;;;;15.03;7.67;;;6.00;99.90;;;;;;5007634;28;20180;-66
2023/10/18 08:12:18;;;;;;;37.67;16.83;;;6.30;99.90;;;;;;5009199;28;20230;-66
2023/10/18 08:14:47;;;;;;;19.27;8.80;;;6.50;99.90;;;;;;5016992;28;20218;-64
2023/10/18 08:17:29;;;;;;;20.10;8.80;;;6.80;99.90;;;;;;5009164;28;20188;-64
2023/10/18 08:22:43;;;;;;;26.03;13.07;;;7.10;99.90;;;;;;5017166;28;20194;-64
2023/10/18 08:25:21;;;;;;;22.42;10.52;;;6.80;99.90;;;;;;5008463;28;20494;-64
2023/10/18 08:27:53;;;;;;;20.93;9.33;;;6.90;99.90;;;;;;5008933;28;20720;-65
2023/10/18 08:30:24;;;;;;;20.10;9.47;;;7.10;99.90;;;;;;5016016;28;20605;-64
2023/10/18 08:32:52;;;;;;;15.07;8.23;;;7.40;99.90;;;;;;5010373;28;20668;-64
2023/10/18 08:35:20;;;;;;;17.73;8.47;;;7.90;99.90;;;;;;5012371;28;20188;-66
2023/10/18 08:37:46;;;;;;;12.57;7.70;;;8.20;99.90;;;;;;5012406;28;20693;-63
2023/10/18 08:40:17;;;;;;;15.13;8.53;;;8.40;99.90;;;;;;5012619;28;20180;-65
2023/10/18 08:42:50;;;;;;;14.67;7.90;;;8.80;99.90;;;;;;5012130;28;20637;-64
2023/10/18 08:45:23;;;;;;;16.33;9.02;;;9.10;99.90;;;;;;5011555;28;20959;-64
2023/10/18 08:47:56;;;;;;;17.70;9.07;;;9.30;99.90;;;;;;5012356;28;20216;-64
2023/10/18 08:50:24;;;;;;;14.70;8.47;;;9.40;99.90;;;;;;5012488;28;20189;-65
2023/10/18 08:52:50;;;;;;;14.33;7.90;;;9.50;99.90;;;;;;5011969;28;20601;-64
2023/10/18 08:55:22;;;;;;;20.27;8.23;;;9.50;99.90;;;;;;5018553;28;20200;-64
2023/10/18 08:57:48;;;;;;;18.57;8.57;;;9.50;99.90;;;;;;5012779;28;20557;-64
2023/10/18 09:01:02;;;;;;;14.37;8.10;;;9.30;99.90;;;;;;5011966;28;20172;-63
2023/10/18 09:03:03;;;;;;;21.23;8.23;;;9.40;99.90;;;;;;5004633;28;20263;-64
2023/10/18 09:05:30;;;;;;;15.07;7.53;;;9.60;99.90;;;;;;5011695;28;20230;-67
2023/10/18 09:08:05;;;;;;;19.73;8.23;;;9.80;99.90;;;;;;5011910;28;20570;-63
2023/10/18 09:18:20;;;;;;;18.57;8.30;;;10.40;99.90;;;;;;5011730;28;20200;-67
2023/10/18 09:20:46;;;;;;;15.27;7.90;;;10.50;99.90;;;;;;5011574;28;20180;-64
2023/10/18 09:23:21;;;;;;;16.53;8.13;;;10.40;99.90;;;;;;5011095;28;20177;-63
2023/10/18 09:25:49;;;;;;;15.73;7.33;;;10.60;99.90;;;;;;5011500;28;20283;-64
2023/10/18 09:28:25;;;;;;;16.40;7.37;;;10.90;99.90;;;;;;5011464;28;20232;-65
2023/10/18 09:31:16;;;;;;;14.73;7.40;;;11.10;99.90;;;;;;5019643;28;20188;-64
2023/10/18 09:33:50;;;;;;;16.23;7.50;;;11.40;99.90;;;;;;5011047;28;20196;-64
2023/10/18 09:36:20;;;;;;;14.03;7.53;;;11.50;99.90;;;;;;5011356;28;20184;-64
2023/10/18 09:38:48;;;;;;;15.43;7.57;;;11.50;99.90;;;;;;5011329;28;20172;-64
2023/10/18 09:41:14;;;;;;;17.03;6.83;;;11.80;99.90;;;;;;5011361;28;20622;-64
2023/10/18 09:43:39;;;;;;;15.43;6.53;;;11.90;99.90;;;;;;5009316;28;20197;-65
2023/10/18 09:46:07;;;;;;;19.57;6.57;;;11.70;99.90;;;;;;5011142;28;20254;-64
2023/10/18 09:48:38;;;;;;;13.13;6.70;;;11.70;99.90;;;;;;5010890;28;20287;-64
2023/10/18 09:51:08;;;;;;;9.77;5.97;;;11.80;99.90;;;;;;5019231;28;20180;-65
2023/10/18 09:53:50;;;;;;;18.13;9.47;;;11.80;99.90;;;;;;5010531;28;20196;-64
2023/10/18 09:56:24;;;;;;;11.93;6.13;;;11.80;99.90;;;;;;5006281;28;20273;-65
2023/10/18 09:58:51;;;;;;;13.20;6.80;;;11.60;99.90;;;;;;5010494;28;20211;-65
2023/10/18 10:04:09;;;;;;;13.90;6.03;;;11.70;99.90;;;;;;4976528;28;20830;-64
2023/10/18 10:06:35;;;;;;;11.37;6.23;;;12.10;99.90;;;;;;5010621;28;20232;-64
2023/10/18 10:09:14;;;;;;;10.90;5.60;;;12.30;99.90;;;;;;5010573;28;20204;-65
2023/10/18 10:11:46;;;;;;;8.47;5.20;;;12.70;99.90;;;;;;5010500;28;20187;-64
2023/10/18 10:14:17;;;;;;;9.63;5.80;;;12.80;99.90;;;;;;5010300;28;20238;-65
2023/10/18 10:17:09;;;;;;;8.20;5.20;;;13.20;99.90;;;;;;5010458;28;20185;-65
2023/10/18 10:19:42;;;;;;;10.17;5.27;;;13.30;99.90;;;;;;5010353;28;20192;-64
2023/10/18 10:22:12;;;;;;;10.87;5.50;;;13.60;99.90;;;;;;5010469;28;20172;-67
2023/10/18 10:24:58;;;;;;;8.70;5.00;;;13.50;99.90;;;;;;5010039;28;20612;-64
2023/10/18 10:30:03;;;;;;;8.27;5.07;;;13.70;99.90;;;;;;5009562;28;20179;-63
2023/10/18 10:32:30;;;;;;;8.43;5.13;;;13.60;99.90;;;;;;5010646;28;20592;-64
2023/10/18 10:35:15;;;;;;;10.23;5.37;;;13.60;99.90;;;;;;5001990;28;20208;-64
2023/10/18 10:37:46;;;;;;;8.93;4.83;;;13.70;99.90;;;;;;5010094;28;20886;-64
2023/10/18 10:43:08;;;;;;;10.27;4.80;;;13.60;99.90;;;;;;5008222;28;20188;-65
2023/10/18 10:48:18;;;;;;;7.40;5.00;;;13.30;99.90;;;;;;5008663;28;20439;-66
2023/10/18 10:51:06;;;;;;;8.63;4.83;;;13.20;99.90;;;;;;5009797;28;20685;-65
2023/10/18 10:53:34;;;;;;;12.27;5.23;;;13.10;99.90;;;;;;5009242;28;20658;-64
2023/10/18 10:56:27;;;;;;;10.80;4.67;;;13.00;99.90;;;;;;5009299;28;20633;-64
2023/10/18 10:59:09;;;;;;;9.97;4.53;;;12.80;99.90;;;;;;5012623;28;20221;-66
2023/10/18 11:01:43;;;;;;;10.17;4.77;;;12.90;99.90;;;;;;5020754;28;20230;-64
2023/10/18 11:04:14;;;;;;;9.00;4.90;;;12.80;99.90;;;;;;5009430;28;20199;-67
2023/10/18 11:06:43;;;;;;;8.90;4.40;;;12.90;99.90;;;;;;5009570;28;20665;-64
2023/10/18 11:09:15;;;;;;;13.63;4.73;;;12.90;99.90;;;;;;5010280;28;20255;-63
2023/10/18 11:11:43;;;;;;;12.63;5.73;;;12.80;99.90;;;;;;5009661;28;20186;-64
2023/10/18 11:14:09;;;;;;;11.47;5.17;;;12.70;99.90;;;;;;5009229;28;20284;-64
2023/10/18 11:16:36;;;;;;;10.40;5.10;;;12.60;99.90;;;;;;5009384;28;20807;-63
2023/10/18 11:19:02;;;;;;;11.73;4.73;;;12.60;99.90;;;;;;5010019;28;20184;-65
2023/10/18 11:21:32;;;;;;;9.27;4.63;;;12.50;99.90;;;;;;5009562;28;20665;-64
2023/10/18 11:24:02;;;;;;;10.33;4.70;;;12.50;99.90;;;;;;5001430;28;20314;-64
2023/10/18 11:26:28;;;;;;;13.17;5.77;;;12.70;99.90;;;;;;5009631;28;20516;-64
2023/10/18 11:29:05;;;;;;;10.00;4.57;;;12.70;99.90;;;;;;5009366;28;20196;-65
2023/10/18 11:31:31;;;;;;;9.30;4.70;;;12.80;99.90;;;;;;5009438;28;20666;-67
2023/10/18 11:34:07;;;;;;;8.27;4.83;;;12.80;99.90;;;;;;5008913;28;20291;-64
2023/10/18 11:36:34;;;;;;;9.20;5.00;;;12.80;99.90;;;;;;5009476;28;20187;-64
2023/10/18 11:39:07;;;;;;;9.67;4.90;;;12.90;99.90;;;;;;5009383;28;20180;-64
2023/10/18 11:41:34;;;;;;;7.77;4.03;;;13.10;99.90;;;;;;5009285;28;20219;-64
2023/10/18 11:44:07;;;;;;;7.53;4.67;;;13.20;99.90;;;;;;5008445;28;20283;-64
2023/10/18 11:46:56;;;;;;;8.03;4.40;;;13.30;99.90;;;;;;5009310;28;20189;-64
2023/10/18 11:49:33;;;;;;;8.07;4.30;;;13.40;99.90;;;;;;5009408;28;20232;-63
2023/10/18 11:51:58;;;;;;;9.47;4.53;;;13.40;99.90;;;;;;5009711;28;20230;-64
2023/10/18 11:54:31;;;;;;;7.63;4.07;;;13.50;99.90;;;;;;5008903;28;20204;-65
2023/10/18 11:56:57;;;;;;;9.90;4.40;;;13.50;99.90;;;;;;5009499;28;20308;-63
2023/10/18 11:59:24;;;;;;;8.37;4.43;;;13.90;99.90;;;;;;5008965;28;20181;-63
2023/10/18 12:01:54;;;;;;;8.33;4.27;;;14.10;99.90;;;;;;5009432;28;20182;-65
2023/10/18 12:04:27;;;;;;;7.80;4.07;;;14.10;99.90;;;;;;5008813;28;20617;-66
2023/10/18 12:06:54;;;;;;;7.07;3.60;;;14.40;99.90;;;;;;5010489;28;20264;-64
2023/10/18 12:11:45;;;;;;;7.27;3.80;;;14.90;99.90;;;;;;5014652;28;20172;-64
2023/10/18 12:14:10;;;;;;;23.03;4.47;;;14.90;99.90;;;;;;5018866;28;20212;-64
2023/10/18 12:16:36;;;;;;;6.47;4.03;;;14.90;99.90;;;;;;5012774;28;20673;-64
2023/10/18 12:19:02;;;;;;;9.47;4.43;;;15.00;99.90;;;;;;5012794;28;20229;-63
2023/10/18 12:21:30;;;;;;;10.33;4.20;;;14.80;99.90;;;;;;5012668;28;20212;-66
2023/10/18 12:23:57;;;;;;;10.67;4.33;;;14.50;99.90;;;;;;5012170;28;20205;-64
2023/10/18 12:26:24;;;;;;;10.77;5.10;;;14.30;99.90;;;;;;5012577;28;20172;-66
2023/10/18 12:28:52;;;;;;;7.03;4.10;;;14.40;99.90;;;;;;5012428;28;20208;-64
2023/10/18 12:31:26;;;;;;;8.07;4.30;;;14.40;99.90;;;;;;5012583;28;20200;-64
2023/10/18 12:33:58;;;;;;;9.13;4.63;;;14.30;99.90;;;;;;5012265;28;20246;-64
2023/10/18 12:36:32;;;;;;;10.30;4.43;;;14.30;99.90;;;;;;5000969;28;20185;-66
2023/10/18 12:38:58;;;;;;;14.30;4.50;;;14.20;99.90;;;;;;5002731;28;20211;-66
2023/10/18 12:41:33;;;;;;;11.07;4.17;;;14.10;99.90;;;;;;5010377;28;20189;-66
2023/10/18 12:44:03;;;;;;;8.83;3.77;;;13.90;99.90;;;;;;5004942;28;20199;-66
2023/10/18 12:46:29;;;;;;;10.07;5.40;;;13.90;99.90;;;;;;5007393;28;20192;-66
2023/10/18 12:48:57;;;;;;;8.53;4.50;;;13.90;99.90;;;;;;5004396;28;20697;-66
2023/10/18 12:51:30;;;;;;;10.57;4.07;;;13.90;99.90;;;;;;5007562;28;20180;-65
2023/10/18 12:53:57;;;;;;;7.33;4.10;;;14.30;99.90;;;;;;5006897;28;20284;-65
2023/10/18 13:04:07;;;;;;;10.67;4.37;;;14.20;99.90;;;;;;5011234;28;20204;-66
2023/10/18 13:06:51;;;;;;;11.27;4.27;;;14.00;99.90;;;;;;5011849;28;20185;-65
2023/10/18 13:09:20;;;;;;;6.63;3.70;;;14.00;99.90;;;;;;5007201;28;20184;-66
2023/10/18 13:14:23;;;;;;;7.37;4.07;;;14.20;99.90;;;;;;5006600;28;20212;-65
2023/10/18 13:16:51;;;;;;;7.97;3.53;;;14.30;99.90;;;;;;5003458;28;20193;-65
2023/10/18 13:19:19;;;;;;;8.00;4.30;;;14.30;99.90;;;;;;5002093;28;20189;-65
2023/10/18 13:21:47;;;;;;;10.07;4.30;;;14.30;99.90;;;;;;5013269;28;20189;-64
2023/10/18 13:26:50;;;;;;;13.20;4.30;;;14.30;99.90;;;;;;5005185;28;20258;-67
2023/10/18 13:29:45;;;;;;;11.50;4.30;;;14.40;99.90;;;;;;5010820;28;20183;-66
2023/10/18 13:32:10;;;;;;;9.70;4.20;;;14.50;99.90;;;;;;5007099;28;20676;-65
2023/10/18 13:34:45;;;;;;;7.43;3.83;;;14.50;99.90;;;;;;5010861;28;20196;-67
2023/10/18 13:37:12;;;;;;;6.77;4.03;;;14.60;99.90;;;;;;5006231;28;20180;-65
2023/10/18 13:39:42;;;;;;;7.37;4.20;;;14.70;99.90;;;;;;5008062;28;20211;-67
2023/10/18 13:42:11;;;;;;;9.60;4.10;;;14.80;99.90;;;;;;5002863;28;20203;-66
2023/10/18 13:44:37;;;;;;;6.80;4.07;;;15.00;99.90;;;;;;5009598;28;20208;-65
2023/10/18 13:47:02;;;;;;;6.77;3.90;;;15.20;99.90;;;;;;5005686;28;20173;-66
2023/10/18 13:49:28;;;;;;;7.10;3.90;;;15.30;99.90;;;;;;5013282;28;20192;-68
2023/10/18 13:51:54;;;;;;;8.40;3.67;;;15.30;99.90;;;;;;5005062;28;20208;-66
2023/10/18 13:54:20;;;;;;;7.63;3.80;;;15.00;99.90;;;;;;5010505;28;20223;-66
2023/10/18 13:56:46;;;;;;;15.53;3.97;;;14.90;99.90;;;;;;5010942;28;20675;-66
2023/10/18 13:59:13;;;;;;;10.67;4.20;;;14.80;99.90;;;;;;5010963;28;20180;-69
2023/10/18 14:01:39;;;;;;;7.47;3.63;;;14.70;99.90;;;;;;5010907;28;20204;-63
2023/10/18 14:04:05;;;;;;;6.10;3.30;;;14.20;99.90;;;;;;5010463;28;20203;-65
2023/10/18 14:06:33;;;;;;;9.40;3.30;;;14.10;99.90;;;;;;5010606;28;20524;-66
2023/10/18 14:08:59;;;;;;;9.30;3.50;;;14.20;99.90;;;;;;5010745;28;20200;-65
2023/10/18 14:11:25;;;;;;;6.23;3.33;;;14.20;99.90;;;;;;5010733;28;20189;-66
2023/10/18 14:13:54;;;;;;;8.30;3.50;;;14.20;99.90;;;;;;5010103;28;20219;-64
2023/10/18 14:16:20;;;;;;;9.23;3.60;;;14.10;99.90;;;;;;5010693;28;20523;-63
2023/10/18 14:18:51;;;;;;;7.47;3.27;;;14.10;99.90;;;;;;5010216;28;20271;-63